Hauptseite
METAR-TAF:

METAR-TAF

Flughäfen :

Flughafen Aurillac

Aurillac, Frankreich

Breite: 44-53N, Länge: 002-25E, Höhe: 639 m

Beobachtung

Neuester Wetterbericht von vor 41 Minuten, um 08:30 UTC
Wind 6 kt aus Ost
Temperatur 5°C
Luftfeuchtigkeit 87%
Luftdruck 1021 hPa
Sichtweite 10 km oder mehr

METAR: LFLW 240830Z AUTO 10006KT 9999 ////// 05/03 Q1021

Zeit: 10:11 (09:11 UTC)

Prognose

Neuester Wetterbericht von vor 1 Stunde und 11 Minuten, um 08:00 UTC
Gültige Prognose vom 24 um 09 UTC bis 24 um 18 UTC
Wind 6 kt aus Ost/Südost
Sichtweite 10 km oder mehr
keine Wolken unter 1500 m und keine Kumulonimbus oder Gewitterwolken
Wahrscheinlichkeit 30% :
Zeitweise
vom 24 um 11 UTC bis 24 um 15 UTC
Aufgelockert bewölkt in der Höhe von 2000 ft
Zeitweise
vom 24 um 15 UTC bis 24 um 18 UTC
Durchbrochene Bewölkung in der Höhe von 4000 ft

TAF: LFLW 240800Z 2409/2418 12006KT CAVOK PROB30 TEMPO 2411/2415 SCT020 TEMPO 2415/2418 BKN040

Wetterbeobachtungen und Prognosen von mehr als 4000 Flughäfen (METAR und TAF Bericht).

Die verfügbaren Stationen werden durch gelbe und rote Markierungen auf der Karte dargestellt.

Führen Sie die Maus auf sie, um den Namen der Station zu sehen.

Darauf klicken, um die Beobachtung von Wetterbeobachtungen und Prognosen zu sehen.

Um die Karte zu ändern : klicken Sie auf den grünen Tasten mit einem schwarzen Kreuz Zum Vergrößern, auf den grünen Button mit einem Gedankenstrich zu verkleinern, oder auf die grünen Pfeile für benachbarte Karten.


METAR-TAF: